Calumet, IA

12:03 PM CDT del 27 Aprile 2015 (GMT -0500)
Orange City Municipal | | Change Station
CLOSE
Current Station
Aeroporto
Location: Orange City,
Altitudine: 1414 ft
Stazioni meteo nelle vicinanze

Alt. 1414 ft 42.99 °N, 96.06 °W | Updated 8 minutes ago

Sereno
Sereno
63 °F
Sembra 63 °F
N
6
Vento Variabile Vento da ENE

Oggi
Massima -- | Minima -- °F
--% Possibilità di precip.
Ieri
Massima -- | Minima -- °F
Precip. -- in
6:22 AM 8:18 PM
Gobba a ponente, 66% visible
Pressione 30.22 in
Visibilità 10.0 miglia
Nuvole Sereno
Punto di rugiada 28 °F
Umidità 27%
Piovosità 0.00 in
Spessore del manto nevoso Non disponibile.
Raggi UV 9 fuori da 12
Polline 10.60 fuori da 12
Qualità dell'aria Non disponibile.
Flu Activity Local Activity
METAR KORC 271655Z AUTO 06005KT 10SM CLR 17/M02 A3022 RMK AO2

More Conditions Fewer Conditions

Pressione 30.22 in
Visibilità 10.0 miglia
Nuvole Sereno
Punto di rugiada 28 °F
Umidità 27%
Piovosità 0.00 in
Spessore del manto nevoso Non disponibile.
Raggi UV 9 fuori da 12
Polline 10.60 fuori da 12
Qualità dell'aria Non disponibile.
Flu Activity Local Activity
METAR KORC 271655Z AUTO 06005KT 10SM CLR 17/M02 A3022 RMK AO2

More Conditions Fewer Conditions

10-Day Weather Forecast

Almanac

Astronomia

Apr. 27, 2015 Alba Tramonto
Ora attuale
Crepuscolo civile
Crepuscolo nautico
Crepuscolo astronomico
Luna
Estensione della luce visibile
Lunghezza del giorno
Tomorrow will be .
, % of the Moon is Illuminated

Gli estremi di oggi

State Highs State Lows

Community

WunderPhotos

Upload Photos

1,817,341 foto caricate!

WunderBlogs® & News

Nearby

Qualità dell'aria

  Qualità dell'aria Indice AQ Inquinante
Not available.

Profondità neve

Stazione Profondità Altitudine

Attività sismica

Città  Distanza Mag. Data & Ora
Minimo Magnitudo Mostrato è 2.5.

Temperature delle acque costiere

Località Temperatura

Stations

Stazioni meteo nelle vicinanze

Ubicazione della stazione Temp. Raffreddamento del vento Punto di rugiada Umidità Vento Precip. Alt. Aggiornato Tipo